Terminal Aerodrome Forecast
Issued by NWS

Home | Current Version | Previous Version | Text Only | Print | Product List | Glossary On
Versions: 1 2 3 4 5 6 7 8 9 10 11 12 13 14 15 16 17 18 19 20 21 22 23 24 25 26
000
FTUS41 KBUF 290500
TAFIAG
TAF
KIAG 290532Z 2906/3006 00000KT P6SM SCT250
     FM291400 16004KT P6SM BKN200
     FM291900 VRB03KT P6SM BKN150
     FM300000 11004KT P6SM BKN110
     FM300400 15004KT P6SM BKN080=

USA.gov is the U.S. government's official web portal to all federal, state and local government web resources and services.